| time (UTC) | Packet |
| 20260508171226 | KO5MO-4>APRS,TCPIP*,qAC,T2TAS:=3333.69N/11210.39W_202.5/003g003t090r000p...P...h18b100995N1 - Room Humidity: 23.06% Room Temp:80.71 F |
| 20260508171726 | KO5MO-4>APRS,TCPIP*,qAC,T2TAS:=3333.69N/11210.39W_112.5/003g003t091r000p...P...h18b100985N1 - Room Humidity: 22.3% Room Temp:80.59 F |
| 20260508172226 | KO5MO-4>APRS,TCPIP*,qAC,T2TAS:=3333.69N/11210.39W_202.5/004g005t091r000p...P...h18b100985N1 - Room Humidity: 22.95% Room Temp:80.45 F |
| 20260508172726 | KO5MO-4>APRS,TCPIP*,qAC,T2TAS:=3333.69N/11210.39W_202.5/001g002t092r000p...P...h17b100975N1 - Room Humidity: 22.63% Room Temp:80.64 F |
| 20260508173226 | KO5MO-4>APRS,TCPIP*,qAC,T2TAS:=3333.69N/11210.39W_112.5/001g002t091r000p...P...h17b100975N1 - Room Humidity: 22.61% Room Temp:80.71 F |
| 20260508174226 | KO5MO-4>APRS,TCPIP*,qAC,T2TAS:=3333.69N/11210.39W_247.5/002g002t092r000p...P...h17b100975N1 - Room Humidity: 22.74% Room Temp:80.4 F |
| 20260508175226 | KO5MO-4>APRS,TCPIP*,qAC,T2TAS:=3333.69N/11210.39W_157.5/002g004t093r000p...P...h17b100975N1 - Room Humidity: 23.03% Room Temp:80.68 F |
| 20260508175726 | KO5MO-4>APRS,TCPIP*,qAC,T2TAS:=3333.69N/11210.39W_157.5/005g003t094r000p...P...h17b100965N1 - Room Humidity: 22.43% Room Temp:80.78 F |
| 20260508180226 | KO5MO-4>APRS,TCPIP*,qAC,T2TAS:=3333.69N/11210.39W_202.5/003g004t092r000p...P...h17b100965N1 - Room Humidity: 22.32% Room Temp:80.61 F |
| 20260508181226 | KO5MO-4>APRS,TCPIP*,qAC,T2TAS:=3333.69N/11210.39W_337.5/003g004t095r000p...P...h16b100955N1 - Room Humidity: 22.69% Room Temp:80.63 F |
| 20260508182726 | KO5MO-4>APRS,TCPIP*,qAC,T2TAS:=3333.69N/11210.39W_247.5/003g002t095r000p...P...h15b100935N1 - Room Humidity: 22.78% Room Temp:80.61 F |
| 20260508183226 | KO5MO-4>APRS,TCPIP*,qAC,T2TAS:=3333.69N/11210.39W_112.5/002g002t095r000p...P...h16b100925N1 - Room Humidity: 22.91% Room Temp:80.67 F |
| 20260508183726 | KO5MO-4>APRS,TCPIP*,qAC,T2TAS:=3333.69N/11210.39W_292.5/001g000t094r000p...P...h16b100925N1 - Room Humidity: 23.11% Room Temp:80.81 F |
| 20260508184726 | KO5MO-4>APRS,TCPIP*,qAC,T2TAS:=3333.69N/11210.39W_247.5/002g003t097r000p...P...h15b100905N1 - Room Humidity: 22.54% Room Temp:80.66 F |
| 20260508185226 | KO5MO-4>APRS,TCPIP*,qAC,T2TAS:=3333.69N/11210.39W_202.5/007g006t097r000p...P...h15b100905N1 - Room Humidity: 23.01% Room Temp:80.59 F |
| 20260508185726 | KO5MO-4>APRS,TCPIP*,qAC,T2TAS:=3333.69N/11210.39W_247.5/005g004t095r000p...P...h15b100895N1 - Room Humidity: 22.88% Room Temp:80.79 F |
| 20260508190226 | KO5MO-4>APRS,TCPIP*,qAC,T2TAS:=3333.69N/11210.39W_112.5/000g001t096r000p...P...h16b100885N1 - Room Humidity: 22.88% Room Temp:80.92 F |
| 20260508192226 | KO5MO-4>APRS,TCPIP*,qAC,T2TAS:=3333.69N/11210.39W_247.5/002g002t102r000p...P...h13b100865N1 - Room Humidity: 23.08% Room Temp:80.92 F |
| 20260508193226 | KO5MO-4>APRS,TCPIP*,qAC,T2TAS:=3333.69N/11210.39W_202.5/003g003t097r000p...P...h14b100835N1 - Room Humidity: 22.62% Room Temp:80.75 F |
| 20260508195226 | KO5MO-4>APRS,TCPIP*,qAC,T2TAS:=3333.69N/11210.39W_247.5/003g004t099r000p...P...h14b100815N1 - Room Humidity: 22.91% Room Temp:80.8 F |
| 20260508200726 | KO5MO-4>APRS,TCPIP*,qAC,T2TAS:=3333.69N/11210.39W_202.5/000g008t099r000p...P...h14b100805N1 - Room Humidity: 22.48% Room Temp:81.03 F |
| 20260508201226 | KO5MO-4>APRS,TCPIP*,qAC,T2TAS:=3333.69N/11210.39W_202.5/003g004t099r000p...P...h15b100795N1 - Room Humidity: 23.17% Room Temp:80.83 F |
| 20260508201726 | KO5MO-4>APRS,TCPIP*,qAC,T2TAS:=3333.69N/11210.39W_202.5/007g006t102r000p...P...h14b100785N1 - Room Humidity: 23.04% Room Temp:81 F |
| 20260508202226 | KO5MO-4>APRS,TCPIP*,qAC,T2TAS:=3333.69N/11210.39W_202.5/003g001t101r000p...P...h14b100785N1 - Room Humidity: 22.87% Room Temp:81.15 F |
| 20260508202726 | KO5MO-4>APRS,TCPIP*,qAC,T2TAS:=3333.69N/11210.39W_202.5/006g004t102r000p...P...h14b100775N1 - Room Humidity: 22.15% Room Temp:81.03 F |
| 20260508203726 | KO5MO-4>APRS,TCPIP*,qAC,T2TAS:=3333.69N/11210.39W_202.5/006g004t100r000p...P...h14b100755N1 - Room Humidity: 23.01% Room Temp:80.98 F |
| 20260508204226 | KO5MO-4>APRS,TCPIP*,qAC,T2TAS:=3333.69N/11210.39W_247.5/006g008t101r000p...P...h14b100755N1 - Room Humidity: 22.82% Room Temp:81.07 F |
| 20260508205726 | KO5MO-4>APRS,TCPIP*,qAC,T2TAS:=3333.69N/11210.39W_202.5/004g006t101r000p...P...h14b100735N1 - Room Humidity: 23.25% Room Temp:81.06 F |
| 20260508210226 | KO5MO-4>APRS,TCPIP*,qAC,T2TAS:=3333.69N/11210.39W_202.5/005g006t101r000p...P...h14b100725N1 - Room Humidity: 22.86% Room Temp:81.05 F |
| 20260508210726 | KO5MO-4>APRS,TCPIP*,qAC,T2TAS:=3333.69N/11210.39W_202.5/008g008t101r000p...P...h14b100715N1 - Room Humidity: 22.78% Room Temp:80.86 F |
| 20260508211226 | KO5MO-4>APRS,TCPIP*,qAC,T2TAS:=3333.69N/11210.39W_292.5/009g005t102r000p...P...h14b100705N1 - Room Humidity: 23.16% Room Temp:80.79 F |
| 20260508212226 | KO5MO-4>APRS,TCPIP*,qAC,T2TAS:=3333.69N/11210.39W_292.5/006g006t103r000p...P...h14b100685N1 - Room Humidity: 22.62% Room Temp:81.02 F |
| 20260508212726 | KO5MO-4>APRS,TCPIP*,qAC,T2TAS:=3333.69N/11210.39W_337.5/011g007t102r000p...P...h14b100675N1 - Room Humidity: 23.26% Room Temp:80.76 F |
| 20260508214726 | KO5MO-4>APRS,TCPIP*,qAC,T2TAS:=3333.69N/11210.39W_202.5/003g003t102r000p...P...h15b100635N1 - Room Humidity: 22.74% Room Temp:81.36 F |
| 20260508215226 | KO5MO-4>APRS,TCPIP*,qAC,T2TAS:=3333.69N/11210.39W_247.5/009g008t103r000p...P...h14b100635N1 - Room Humidity: 22.95% Room Temp:81.31 F |
| 20260508215726 | KO5MO-4>APRS,TCPIP*,qAC,T2TAS:=3333.69N/11210.39W_292.5/007g005t102r000p...P...h14b100615N1 - Room Humidity: 22.34% Room Temp:81.39 F |
| 20260508220726 | KO5MO-4>APRS,TCPIP*,qAC,T2TAS:=3333.69N/11210.39W_247.5/008g011t104r000p...P...h14b100595N1 - Room Humidity: 22.94% Room Temp:81.01 F |
| 20260508223226 | KO5MO-4>APRS,TCPIP*,qAC,T2TAS:=3333.69N/11210.39W_292.5/007g006t104r000p...P...h13b100555N1 - Room Humidity: 22.95% Room Temp:81.16 F |
| 20260508225226 | KO5MO-4>APRS,TCPIP*,qAC,T2TAS:=3333.69N/11210.39W_337.5/004g009t104r000p...P...h13b100525N1 - Room Humidity: 23.5% Room Temp:81.43 F |
| 20260508225726 | KO5MO-4>APRS,TCPIP*,qAC,T2TAS:=3333.69N/11210.39W_292.5/005g005t104r000p...P...h13b100515N1 - Room Humidity: 23.53% Room Temp:81.64 F |